Latest Weather Observations for Cape Ferguson

IDQ60801

Issued at 7:05 pm EST Thursday 31 July 2014 (issued every 30 minutes, with the page automatically refreshed every 10 minutes)

About weather observations | Map of weather stations | Latest weather observations for QLD | Other Formats
Station Details ID: 032182 Name: CAPE FERGUSON NTC AWS Lat: -19.28 Lon: 147.06 Height: 0.0 m
Data from the previous 72 hours. | See also: Recent months for locations in Queensland
Date/Time
EST
Temp
°C
App
Temp
°C
Dew
Point
Rel
Hum
%
Delta-T
°C
Wind Press
QNH
hPa
Press
MSL
hPa
Rain
since 9 am
mm
Dir
 
Spd
km/h
Gust
km/h
Spd
kts
Gust
kts
31/07:00pm 22.1 - - - - ENE 13 17 7 9 1016.6 1016.6 -
31/06:30pm 22.0 - - - - ENE 15 19 8 10 1016.2 - -
31/06:00pm 22.1 - - - - ENE 19 20 10 11 1016.1 1016.1 -
31/05:30pm 22.1 - - - - ENE 17 20 9 11 1016.0 - -
31/05:00pm 22.1 - - - - ENE 17 22 9 12 1015.9 1015.9 -
31/04:30pm 22.1 - - - - ENE 17 19 9 10 1015.9 - -
31/04:00pm 22.1 - - - - ENE 15 20 8 11 1015.8 1015.8 -
31/03:30pm 22.1 - - - - ENE 17 20 9 11 1015.8 - -
31/03:00pm 22.0 - - - - ENE 17 19 9 10 1015.7 1015.7 -
31/02:30pm 22.0 - - - - ENE 17 20 9 11 1016.0 - -
31/02:00pm 22.0 - - - - ENE 13 17 7 9 1016.3 1016.3 -
31/01:30pm 22.0 - - - - ENE 11 15 6 8 1016.8 - -
31/01:00pm 22.0 - - - - ENE 9 11 5 6 1017.1 1017.1 -
31/12:30pm 21.8 - - - - E 6 7 3 4 1017.6 - -
31/12:00pm 21.6 - - - - ESE 7 9 4 5 1018.2 1018.2 -
31/11:30am 21.5 - - - - ESE 9 11 5 6 1018.8 - -
31/11:00am 21.2 - - - - ESE 13 15 7 8 1019.2 1019.2 -
31/10:30am 21.1 - - - - SE 13 15 7 8 1019.4 - -
31/10:00am 20.9 - - - - SSE 11 15 6 8 1019.7 1019.7 -
31/09:30am 20.6 - - - - SSE 7 11 4 6 1019.7 - -
31/09:00am 20.0 - - - - SSE 11 15 6 8 1019.7 1019.7 -
31/08:30am 19.8 - - - - SSE 15 19 8 10 1019.5 - -
31/08:00am 19.4 - - - - SSE 20 24 11 13 1019.2 1019.2 -
31/07:30am 19.6 - - - - SSE 19 22 10 12 1019.0 - -
31/07:00am 19.3 - - - - S 15 17 8 9 1018.7 1018.7 -
31/06:30am 19.3 - - - - S 11 15 6 8 1018.5 - -
31/06:00am 19.5 - - - - S 13 15 7 8 1018.3 1018.3 -
31/05:30am 19.8 - - - - S 9 15 5 8 1018.1 - -
31/05:00am 19.5 - - - - SW 6 13 3 7 1017.9 1017.9 -
31/04:30am 19.4 - - - - S 13 15 7 8 1017.9 - -
31/04:00am 19.4 - - - - SSE 17 20 9 11 1017.9 1017.9 -
31/03:30am 19.4 - - - - SSE 17 20 9 11 1018.2 - -
31/03:00am 19.7 - - - - SSE 17 19 9 10 1018.3 1018.3 -
31/02:30am 20.0 - - - - SSE 13 15 7 8 1018.3 - -
31/02:00am 20.3 - - - - SE 15 19 8 10 1018.5 1018.5 -
31/01:30am 20.5 - - - - SSE 11 15 6 8 1018.8 - -
31/01:00am 20.7 - - - - SSE 11 15 6 8 1018.9 1018.9 -
31/12:30am 20.9 - - - - SSE 13 17 7 9 1019.2 - -
31/12:00am 21.2 - - - - SSE 13 17 7 9 1019.2 1019.2 -
 
Date/Time
EST
Temp
°C
App
Temp
°C
Dew
Point
Rel
Hum
%
Delta-T
°C
Wind Press
QNH
hPa
Press
MSL
hPa
Rain
since 9 am
mm
Dir
 
Spd
km/h
Gust
km/h
Spd
kts
Gust
kts
30/11:30pm 21.2 - - - - SSE 13 15 7 8 1019.2 - -
30/11:00pm 21.5 - - - - SE 15 19 8 10 1019.4 1019.4 -
30/10:30pm 22.0 - - - - E 22 26 12 14 1019.6 - -
30/10:00pm 21.9 - - - - E 20 26 11 14 1019.8 1019.8 -
30/09:30pm 22.0 - - - - E 22 28 12 15 1019.7 - -
30/09:00pm 22.1 - - - - E 22 26 12 14 1019.5 1019.5 -
30/08:30pm 22.2 - - - - E 24 28 13 15 1019.3 - -
30/08:00pm 22.1 - - - - E 24 30 13 16 1019.2 1019.2 -
30/07:30pm 22.0 - - - - E 24 28 13 15 1019.0 - -
30/07:00pm 21.9 - - - - E 22 26 12 14 1018.8 1018.8 -
30/06:30pm 22.0 - - - - E 20 24 11 13 1018.3 - -
30/06:00pm 21.8 - - - - E 20 26 11 14 1018.2 1018.2 -
30/05:30pm 21.9 - - - - E 22 26 12 14 1017.9 - -
30/05:00pm 21.9 - - - - E 20 26 11 14 1017.9 1017.9 -
30/04:30pm 21.9 - - - - E 20 26 11 14 1017.7 - -
30/04:00pm 21.8 - - - - E 20 24 11 13 1017.6 1017.6 -
30/03:30pm 21.9 - - - - E 20 24 11 13 1017.6 - -
30/03:00pm 21.9 - - - - E 20 24 11 13 1017.6 1017.6 -
30/02:30pm 21.8 - - - - E 20 24 11 13 1017.9 - -
30/02:00pm 21.5 - - - - E 20 22 11 12 1018.2 1018.2 -
30/01:30pm 21.6 - - - - E 19 20 10 11 1018.5 - -
30/01:00pm 21.5 - - - - E 15 19 8 10 1019.0 1019.0 -
30/12:30pm 21.4 - - - - E 15 17 8 9 1019.4 - -
30/12:00pm 21.2 - - - - E 15 17 8 9 1020.2 1020.2 -
30/11:30am 21.1 - - - - ESE 13 17 7 9 1020.5 - -
30/11:00am 20.8 - - - - SE 15 19 8 10 1021.1 1021.1 -
30/10:30am 20.4 - - - - SE 19 22 10 12 1021.5 - -
30/10:00am 20.3 - - - - SSE 19 24 10 13 1021.6 1021.6 -
30/09:30am 19.9 - - - - SSE 17 20 9 11 1021.6 - -
30/09:00am 19.7 - - - - SSE 17 20 9 11 1021.4 1021.4 -
30/08:30am 19.5 - - - - SSE 19 22 10 12 1021.3 - -
30/08:00am 19.2 - - - - SSE 19 22 10 12 1021.2 1021.2 -
30/07:30am 19.1 - - - - SSE 17 20 9 11 1020.8 - -
30/07:00am 18.9 - - - - SSE 17 20 9 11 1020.7 1020.7 -
30/06:30am 19.0 - - - - SE 17 20 9 11 1020.6 - -
30/06:00am 19.1 - - - - SSE 15 19 8 10 1020.3 1020.3 -
30/05:30am 19.1 - - - - SSE 19 22 10 12 1019.8 - -
30/05:00am 19.3 - - - - SSE 13 15 7 8 1019.5 1019.5 -
30/04:30am 19.8 - - - - S 11 15 6 8 1019.2 - -
30/04:00am 19.9 - - - - SSE 13 17 7 9 1019.2 1019.2 -
30/03:30am 19.9 - - - - SSE 13 15 7 8 1019.2 - -
30/03:00am 20.2 - - - - SSE 15 19 8 10 1019.2 1019.2 -
30/02:30am 20.2 - - - - SE 13 15 7 8 1019.5 - -
30/02:00am 20.7 - - - - SSE 9 11 5 6 1019.7 1019.7 -
30/01:30am 19.6 - - - - WNW 6 7 3 4 1019.6 - -
30/01:00am 20.9 - - - - SSE 9 11 5 6 1019.9 1019.9 -
30/12:30am 21.0 - - - - SSE 11 13 6 7 1020.0 - -
30/12:00am 21.3 - - - - SSE 13 15 7 8 1020.1 1020.1 -
 
Date/Time
EST
Temp
°C
App
Temp
°C
Dew
Point
Rel
Hum
%
Delta-T
°C
Wind Press
QNH
hPa
Press
MSL
hPa
Rain
since 9 am
mm
Dir
 
Spd
km/h
Gust
km/h
Spd
kts
Gust
kts
29/11:30pm 21.9 - - - - ESE 19 24 10 13 1020.4 - -
29/11:00pm 22.0 - - - - ESE 19 22 10 12 1020.6 1020.6 -
29/10:30pm 21.9 - - - - E 19 22 10 12 1020.9 - -
29/10:00pm 22.0 - - - - E 19 22 10 12 1021.0 1021.0 -
29/09:30pm 22.0 - - - - E 20 24 11 13 1020.9 - -
29/09:00pm 22.0 - - - - E 20 26 11 14 1020.7 1020.7 -
29/08:30pm 22.1 - - - - E 20 26 11 14 1020.4 - -
29/08:00pm 22.1 - - - - E 20 24 11 13 1020.3 1020.3 -
29/07:30pm 22.2 - - - - E 19 22 10 12 1020.1 - -
29/07:00pm 22.1 - - - - E 19 22 10 12 1020.0 1020.0 -
29/06:30pm 22.2 - - - - E 15 17 8 9 1019.6 - -
29/06:00pm 22.1 - - - - ENE 17 19 9 10 1019.5 1019.5 -
29/05:30pm 22.0 - - - - E 15 19 8 10 1019.3 - -
29/05:00pm 22.1 - - - - ENE 17 20 9 11 1019.0 1019.0 -
29/04:30pm 21.9 - - - - ENE 17 22 9 12 1018.7 - -
29/04:00pm 21.8 - - - - ENE 17 19 9 10 1018.7 1018.7 -
29/03:30pm 21.7 - - - - ENE 17 19 9 10 1018.7 - -
29/03:00pm 21.5 - - - - ENE 17 20 9 11 1018.8 1018.8 -
29/02:30pm 21.6 - - - - ENE 15 20 8 11 1018.9 - -
29/02:00pm 21.5 - - - - ENE 17 19 9 10 1019.2 1019.2 -
29/01:30pm 21.9 - - - - ENE 15 24 8 13 1019.5 - -
29/01:00pm 23.1 - - - - ENE 6 13 3 7 1019.6 1019.6 -
29/12:30pm 22.9 - - - - E 4 7 2 4 1020.0 - -
29/12:00pm 22.5 - - - - E 4 6 2 3 1020.5 1020.5 -
29/11:30am 22.1 - - - - CALM 0 2 0 1 1020.8 - -
29/11:00am 21.7 - - - - S 7 9 4 5 1021.2 1021.2 -
29/10:30am 21.2 - - - - SSE 13 17 7 9 1021.5 - -
29/10:00am 20.5 - - - - SSE 15 19 8 10 1021.7 1021.7 -
29/09:30am 20.3 - - - - SSE 13 17 7 9 1021.7 - -
29/09:00am 19.7 - - - - SSE 15 17 8 9 1021.5 1021.5 -
29/08:30am 19.3 - - - - SSE 11 15 6 8 1021.4 - -
29/08:00am 18.9 - - - - S 11 15 6 8 1021.3 1021.3 -
29/07:30am 18.3 - - - - SW 9 19 5 10 1021.1 - -
29/07:00am 18.6 - - - - S 13 17 7 9 1020.8 1020.8 -
29/06:30am 18.6 - - - - S 13 17 7 9 1020.7 - -
29/06:00am 19.1 - - - - S 17 19 9 10 1020.5 1020.5 -
29/05:30am 19.2 - - - - S 17 20 9 11 1020.5 - -
29/05:00am 19.6 - - - - SSE 17 20 9 11 1020.3 1020.3 -
29/04:30am 19.5 - - - - SSE 17 20 9 11 1020.1 - -
29/04:00am 19.8 - - - - SSE 13 17 7 9 1019.9 1019.9 -
29/03:30am 20.0 - - - - SSE 13 15 7 8 1020.0 - -
29/03:00am 20.0 - - - - SSE 15 17 8 9 1019.9 1019.9 -
29/02:30am 20.3 - - - - S 11 15 6 8 1020.0 - -
29/02:00am 19.5 - - - - W 2 9 1 5 1020.1 1020.1 -
29/01:30am 19.8 - - - - W 4 9 2 5 1020.3 - -
29/01:00am 20.6 - - - - S 9 13 5 7 1020.5 1020.5 -
29/12:30am 20.7 - - - - SSE 11 13 6 7 1020.5 - -
29/12:00am 20.9 - - - - SSE 13 15 7 8 1020.6 1020.6 -
 
Date/Time
EST
Temp
°C
App
Temp
°C
Dew
Point
Rel
Hum
%
Delta-T
°C
Wind Press
QNH
hPa
Press
MSL
hPa
Rain
since 9 am
mm
Dir
 
Spd
km/h
Gust
km/h
Spd
kts
Gust
kts
28/11:30pm 21.2 - - - - SSE 9 15 5 8 1020.6 - -
28/11:00pm 22.1 - - - - E 19 22 10 12 1020.8 1020.8 -
28/10:30pm 22.1 - - - - E 19 22 10 12 1020.8 - -
28/10:00pm 22.1 - - - - E 20 24 11 13 1020.9 1020.9 -
28/09:30pm 22.0 - - - - E 20 24 11 13 1020.8 - -
28/09:00pm 22.1 - - - - E 20 24 11 13 1020.8 1020.8 -
28/08:30pm 22.0 - - - - E 20 26 11 14 1020.8 - -
28/08:00pm 22.1 - - - - E 20 24 11 13 1020.6 1020.6 -
28/07:30pm 22.0 - - - - E 19 24 10 13 1020.3 - -

Other Formats:

Comma delimited format used in spreadsheet applications
http://www.bom.gov.au/fwo/IDQ60801/IDQ60801.94297.axf

JavaScript Object Notation format (JSON) in row-major order
http://www.bom.gov.au/fwo/IDQ60801/IDQ60801.94297.json